createdAt,value
2022-09-14T00:00:06.508Z,4.07
2022-09-14T00:02:37.413Z,4.17
2022-09-14T00:05:06.933Z,4.47
2022-09-14T00:07:34.434Z,4.43
2022-09-14T00:10:01.933Z,5.20
2022-09-14T00:12:29.478Z,5.20
2022-09-14T00:14:56.982Z,4.13
2022-09-14T00:17:24.728Z,4.63
2022-09-14T00:19:53.236Z,4.30
2022-09-14T00:22:22.131Z,4.20
2022-09-14T00:24:50.342Z,4.57
2022-09-14T00:27:17.863Z,4.47
2022-09-14T00:29:48.391Z,4.30
2022-09-14T00:32:15.972Z,4.20
2022-09-14T00:34:43.564Z,4.67
2022-09-14T00:37:12.123Z,4.30
2022-09-14T00:39:41.137Z,4.10
2022-09-14T00:42:08.682Z,3.90
2022-09-14T00:44:55.060Z,3.97
2022-09-14T00:47:22.663Z,3.70
2022-09-14T00:49:50.161Z,3.90
2022-09-14T00:52:21.268Z,3.93
2022-09-14T00:54:52.110Z,3.87
2022-09-14T00:57:20.345Z,4.00
2022-09-14T00:59:49.251Z,3.93
2022-09-14T01:02:18.501Z,3.83
2022-09-14T01:04:47.747Z,4.70
2022-09-14T01:07:20.120Z,5.50
2022-09-14T01:09:52.058Z,5.63
2022-09-14T01:12:23.907Z,4.90
2022-09-14T01:14:55.188Z,4.53
2022-09-14T01:17:26.675Z,3.90
2022-09-14T01:20:08.806Z,3.90
2022-09-14T01:22:37.884Z,4.07
2022-09-14T01:25:12.743Z,4.30
2022-09-14T01:27:43.951Z,3.90
2022-09-14T01:30:12.371Z,3.60
2022-09-14T01:32:42.361Z,4.00
2022-09-14T01:35:16.001Z,3.83
2022-09-14T01:37:46.459Z,3.67
2022-09-14T01:40:17.519Z,3.90
2022-09-14T01:42:49.126Z,3.77
2022-09-14T01:45:19.085Z,3.87
2022-09-14T01:47:49.061Z,3.70
2022-09-14T01:50:18.932Z,4.20
2022-09-14T01:52:48.027Z,3.43
2022-09-14T01:55:17.974Z,3.43
2022-09-14T01:57:49.266Z,3.77
2022-09-14T02:00:17.758Z,3.80
2022-09-14T02:02:47.877Z,3.50
2022-09-14T02:05:18.342Z,4.03
2022-09-14T02:07:45.955Z,3.87
2022-09-14T02:10:14.976Z,3.90
2022-09-14T02:12:43.003Z,3.63
2022-09-14T02:15:13.559Z,3.47
2022-09-14T02:17:41.190Z,3.43
2022-09-14T02:20:10.832Z,3.27
2022-09-14T02:22:38.328Z,3.37
2022-09-14T02:25:06.233Z,3.67
2022-09-14T02:27:33.754Z,3.33
2022-09-14T02:30:01.467Z,2.83
2022-09-14T02:32:33.907Z,2.83
2022-09-14T02:35:04.054Z,2.90
2022-09-14T02:37:34.890Z,2.93
2022-09-14T02:40:07.158Z,2.50
2022-09-14T02:42:37.673Z,2.40
2022-09-14T02:45:12.092Z,2.37
2022-09-14T02:47:46.515Z,2.63
2022-09-14T02:50:19.914Z,2.27
2022-09-14T02:52:49.557Z,2.30
2022-09-14T02:55:19.509Z,2.40
2022-09-14T02:57:59.422Z,2.70
2022-09-14T03:00:27.355Z,2.53
2022-09-14T03:02:56.724Z,2.60
2022-09-14T03:05:24.371Z,2.53
2022-09-14T03:07:51.934Z,2.40
2022-09-14T03:10:19.474Z,2.60
2022-09-14T03:12:47.023Z,2.30
2022-09-14T03:15:14.591Z,2.27
2022-09-14T03:17:45.806Z,2.40
2022-09-14T03:20:14.806Z,2.33
2022-09-14T03:22:42.295Z,2.43
2022-09-14T03:25:10.046Z,2.60
2022-09-14T03:27:37.535Z,2.27
2022-09-14T03:30:05.351Z,2.50
2022-09-14T03:32:32.933Z,2.57
2022-09-14T03:35:00.703Z,2.50
2022-09-14T03:37:29.598Z,2.43
2022-09-14T03:39:57.154Z,2.97
2022-09-14T03:42:24.790Z,2.83
2022-09-14T03:44:52.275Z,2.70
2022-09-14T03:47:19.771Z,2.43
2022-09-14T03:49:47.332Z,2.30
2022-09-14T03:52:14.957Z,2.70
2022-09-14T03:54:43.900Z,2.87
2022-09-14T03:57:11.430Z,2.73
2022-09-14T03:59:43.480Z,2.60
2022-09-14T04:02:11.332Z,2.77
2022-09-14T04:04:38.910Z,2.50
2022-09-14T04:07:06.411Z,2.30
2022-09-14T04:09:33.961Z,2.60
2022-09-14T04:12:02.974Z,2.50
2022-09-14T04:14:30.465Z,2.43
2022-09-14T04:16:57.956Z,2.43
2022-09-14T04:19:25.438Z,2.50
2022-09-14T04:21:53.007Z,2.67
2022-09-14T04:24:20.670Z,2.53
2022-09-14T04:26:48.444Z,2.70
2022-09-14T04:29:17.322Z,2.40
2022-09-14T04:31:44.895Z,2.70
2022-09-14T04:34:13.698Z,2.50
2022-09-14T04:36:41.405Z,2.70
2022-09-14T04:39:11.783Z,2.67
2022-09-14T04:41:39.300Z,3.03
2022-09-14T04:44:06.803Z,2.50
2022-09-14T04:46:36.144Z,2.63
2022-09-14T04:49:03.871Z,2.73
2022-09-14T04:51:32.602Z,2.77
2022-09-14T04:54:00.927Z,2.80
2022-09-14T04:56:29.084Z,2.53
2022-09-14T04:58:58.364Z,2.60
2022-09-14T05:01:27.251Z,2.87
2022-09-14T05:03:56.329Z,2.60
2022-09-14T05:06:25.132Z,2.50
2022-09-14T05:08:53.333Z,2.90
2022-09-14T05:11:21.426Z,2.93
2022-09-14T05:13:50.233Z,2.70
2022-09-14T05:16:18.875Z,2.93
2022-09-14T05:18:46.656Z,3.20
2022-09-14T05:21:16.214Z,3.27
2022-09-14T05:23:43.694Z,3.20
2022-09-14T05:26:11.438Z,2.90
2022-09-14T05:28:39.120Z,3.20
2022-09-14T05:31:07.026Z,3.60
2022-09-14T05:33:34.601Z,4.17
2022-09-14T05:36:02.659Z,4.10
2022-09-14T05:38:31.782Z,4.30
2022-09-14T05:40:59.445Z,4.20
2022-09-14T05:43:26.948Z,4.80
2022-09-14T05:45:54.486Z,4.30
2022-09-14T05:48:22.135Z,3.80
2022-09-14T05:50:49.648Z,3.50
2022-09-14T05:53:17.220Z,3.47
2022-09-14T05:55:46.090Z,3.50
2022-09-14T05:58:13.599Z,3.30
2022-09-14T06:00:41.126Z,3.37
2022-09-14T06:03:08.620Z,3.50
2022-09-14T06:05:36.668Z,3.40
2022-09-14T06:08:05.114Z,3.20
2022-09-14T06:10:32.608Z,3.10
2022-09-14T06:13:01.782Z,3.80
2022-09-14T06:15:29.267Z,3.53
2022-09-14T06:17:56.776Z,4.17
2022-09-14T06:20:24.498Z,4.17
2022-09-14T06:22:51.995Z,5.30
2022-09-14T06:25:19.524Z,4.20
2022-09-14T06:27:47.029Z,5.03
2022-09-14T06:30:16.289Z,4.17
2022-09-14T06:32:43.796Z,4.87
2022-09-14T06:35:12.504Z,3.70
2022-09-14T06:37:40.183Z,3.93
2022-09-14T06:40:08.182Z,3.80
2022-09-14T06:42:35.721Z,3.87
2022-09-14T06:45:03.495Z,4.10
2022-09-14T06:47:34.051Z,4.13
2022-09-14T06:50:01.573Z,3.50
2022-09-14T06:52:33.532Z,2.90
2022-09-14T06:55:01.635Z,3.00
2022-09-14T06:57:29.192Z,2.70
2022-09-14T06:59:56.770Z,2.60
2022-09-14T07:02:24.351Z,2.67
2022-09-14T07:04:53.247Z,2.60
2022-09-14T07:07:20.776Z,2.33
2022-09-14T07:09:48.276Z,2.43
2022-09-14T07:12:15.849Z,2.70
2022-09-14T07:14:43.352Z,2.60
2022-09-14T07:17:10.846Z,2.33
2022-09-14T07:19:38.571Z,2.40
2022-09-14T07:22:07.600Z,2.10
2022-09-14T07:24:35.090Z,2.50
2022-09-14T07:27:03.476Z,2.63
2022-09-14T07:29:31.006Z,2.23
2022-09-14T07:31:58.486Z,2.80
2022-09-14T07:34:26.206Z,2.60
2022-09-14T07:36:54.083Z,2.70
2022-09-14T07:39:22.967Z,2.30
2022-09-14T07:41:50.489Z,2.63
2022-09-14T07:44:18.478Z,2.40
2022-09-14T07:46:46.498Z,2.57
2022-09-14T07:49:14.261Z,2.30
2022-09-14T07:51:42.143Z,1.90
2022-09-14T07:54:12.188Z,2.40
2022-09-14T07:56:42.267Z,2.40
2022-09-14T07:59:34.371Z,2.60
2022-09-14T08:01:59.205Z,2.37
2022-09-14T08:04:26.764Z,2.20
2022-09-14T08:06:54.257Z,2.70
2022-09-14T08:09:21.720Z,2.63
2022-09-14T08:11:50.567Z,2.40
2022-09-14T08:14:18.083Z,2.50
2022-09-14T08:16:45.583Z,2.40
2022-09-14T08:19:14.646Z,2.40
2022-09-14T08:21:46.471Z,2.78
2022-09-14T08:24:15.789Z,2.73
2022-09-14T08:26:43.507Z,2.60
2022-09-14T08:29:12.512Z,2.40
2022-09-14T08:31:40.555Z,2.33
2022-09-14T08:34:08.503Z,3.20
2022-09-14T08:36:37.037Z,3.03
2022-09-14T08:39:06.022Z,2.70
2022-09-14T08:41:35.747Z,2.90
2022-09-14T08:44:06.255Z,2.75
2022-09-14T08:46:36.724Z,2.75
2022-09-14T08:49:06.264Z,2.87
2022-09-14T08:51:33.770Z,2.72
2022-09-14T08:54:01.500Z,2.70
2022-09-14T08:56:32.381Z,3.40
2022-09-14T08:59:09.175Z,2.50
2022-09-14T09:01:41.684Z,2.92
2022-09-14T09:04:21.292Z,3.05
2022-09-14T09:06:52.923Z,2.40
2022-09-14T09:09:23.654Z,2.67
2022-09-14T09:11:52.525Z,2.70
2022-09-14T09:14:21.405Z,2.65
2022-09-14T09:16:51.655Z,2.60
2022-09-14T09:19:20.836Z,2.75
2022-09-14T09:21:49.088Z,2.33
2022-09-14T09:24:21.884Z,2.83
2022-09-14T09:26:50.164Z,2.67
2022-09-14T09:29:17.843Z,2.83
2022-09-14T09:32:05.542Z,3.00
2022-09-14T09:35:06.563Z,2.72
2022-09-14T09:38:00.118Z,2.78
2022-09-14T09:40:31.392Z,2.40
2022-09-14T09:43:05.751Z,2.72
2022-09-14T09:45:47.466Z,3.00
2022-09-14T09:48:17.055Z,2.53
2022-09-14T09:50:48.441Z,2.80
2022-09-14T09:53:17.115Z,2.40
2022-09-14T09:55:48.376Z,2.28
2022-09-14T09:58:23.473Z,2.50
2022-09-14T10:00:58.109Z,2.35
2022-09-14T10:03:31.886Z,2.78
2022-09-14T10:06:17.378Z,2.53
2022-09-14T10:08:45.690Z,2.45
2022-09-14T10:11:30.741Z,2.58
2022-09-14T10:13:58.722Z,2.33
2022-09-14T10:16:29.796Z,2.58
2022-09-14T10:18:59.355Z,2.38
2022-09-14T10:21:26.921Z,2.28
2022-09-14T10:24:05.818Z,2.53
2022-09-14T10:26:35.140Z,2.40
2022-09-14T10:29:20.847Z,2.50
2022-09-14T10:31:49.434Z,2.20
2022-09-14T10:34:20.259Z,2.30
2022-09-14T10:36:51.957Z,2.15
2022-09-14T10:39:25.994Z,2.38
2022-09-14T10:41:57.601Z,2.38
2022-09-14T10:44:30.523Z,2.28
2022-09-14T10:47:06.255Z,2.30
2022-09-14T10:49:41.658Z,2.50
2022-09-14T10:52:13.929Z,1.90
2022-09-14T10:54:59.198Z,1.90
2022-09-14T10:57:30.855Z,2.10
2022-09-14T11:00:02.106Z,2.00
2022-09-14T11:02:47.094Z,1.90
2022-09-14T11:05:21.548Z,2.13
2022-09-14T11:07:53.991Z,2.60
2022-09-14T11:10:25.687Z,1.83
2022-09-14T11:13:12.635Z,1.92
2022-09-14T11:15:44.365Z,2.00
2022-09-14T11:18:21.193Z,1.80
2022-09-14T11:20:55.183Z,2.25
2022-09-14T11:23:27.514Z,2.13
2022-09-14T11:25:57.332Z,2.55
2022-09-14T11:28:26.392Z,2.10
2022-09-14T11:30:56.659Z,2.30
2022-09-14T11:33:31.211Z,1.90
2022-09-14T11:36:03.997Z,2.53
2022-09-14T11:38:35.579Z,2.10
2022-09-14T11:41:08.811Z,2.63
2022-09-14T11:43:40.149Z,2.15
2022-09-14T11:46:08.852Z,2.35
2022-09-14T11:48:42.886Z,2.20
2022-09-14T11:51:15.370Z,2.50
2022-09-14T11:53:43.480Z,2.50
2022-09-14T11:56:19.103Z,1.88
2022-09-14T11:58:47.203Z,2.50
2022-09-14T12:01:32.443Z,2.17
2022-09-14T12:04:08.234Z,2.40
2022-09-14T12:06:56.107Z,2.30
2022-09-14T12:09:39.891Z,2.25
2022-09-14T12:12:28.112Z,2.42
2022-09-14T12:14:59.873Z,2.65
2022-09-14T12:17:39.396Z,2.67
2022-09-14T12:20:37.844Z,2.15
2022-09-14T12:23:15.698Z,2.63
2022-09-14T12:25:54.098Z,2.30
2022-09-14T12:28:28.356Z,2.25
2022-09-14T12:31:10.679Z,2.10
2022-09-14T12:33:42.656Z,2.35
2022-09-14T12:36:11.986Z,2.20
2022-09-14T12:39:00.324Z,2.80
2022-09-14T12:41:46.833Z,3.00
2022-09-14T12:44:35.263Z,2.15
2022-09-14T12:47:21.423Z,2.40
2022-09-14T12:49:50.299Z,1.88
2022-09-14T12:52:35.720Z,2.10
2022-09-14T12:55:16.007Z,2.35
2022-09-14T12:57:47.270Z,1.92
2022-09-14T13:00:16.156Z,1.98
2022-09-14T13:03:05.631Z,2.70
2022-09-14T13:05:35.218Z,2.38
2022-09-14T13:08:08.867Z,1.88
2022-09-14T13:10:37.763Z,2.25
2022-09-14T13:13:07.473Z,1.95
2022-09-14T13:15:37.446Z,1.80
2022-09-14T13:18:06.471Z,2.13
2022-09-14T13:20:36.295Z,2.20
2022-09-14T13:23:03.798Z,2.00
2022-09-14T13:25:33.890Z,2.08
2022-09-14T13:28:02.592Z,2.17
2022-09-14T13:30:31.117Z,1.98
2022-09-14T13:32:59.212Z,2.17
2022-09-14T13:35:29.618Z,2.00
2022-09-14T13:37:59.522Z,2.00
2022-09-14T13:40:28.976Z,2.30
2022-09-14T13:42:56.750Z,2.00
2022-09-14T13:45:24.952Z,2.10
2022-09-14T13:47:53.272Z,2.00
2022-09-14T13:50:21.915Z,2.20
2022-09-14T13:53:01.654Z,2.40
2022-09-14T13:55:43.258Z,2.45
2022-09-14T13:58:15.267Z,3.40
2022-09-14T14:00:51.194Z,2.70
2022-09-14T14:03:26.038Z,2.10
2022-09-14T14:05:53.594Z,2.65
2022-09-14T14:08:27.092Z,2.30
2022-09-14T14:10:56.435Z,2.63
2022-09-14T14:13:27.087Z,2.13
2022-09-14T14:15:55.043Z,1.70
2022-09-14T14:18:33.223Z,2.00
2022-09-14T14:21:13.566Z,2.33
2022-09-14T14:23:56.710Z,1.50
2022-09-14T14:26:31.139Z,1.83
2022-09-14T14:29:08.008Z,1.88
2022-09-14T14:31:35.563Z,1.75
2022-09-14T14:34:11.603Z,1.90
2022-09-14T14:36:39.800Z,2.00
2022-09-14T14:39:07.289Z,1.67
2022-09-14T14:41:36.383Z,1.88
2022-09-14T14:44:04.908Z,1.63
2022-09-14T14:46:32.769Z,1.70
2022-09-14T14:49:00.313Z,2.83
2022-09-14T14:51:27.842Z,2.10
2022-09-14T14:53:55.367Z,1.80
2022-09-14T14:56:23.093Z,2.00
2022-09-14T14:58:51.999Z,1.75
2022-09-14T15:01:19.584Z,1.60
2022-09-14T15:03:47.302Z,1.75
2022-09-14T15:06:16.448Z,1.80
2022-09-14T15:08:44.088Z,1.70
2022-09-14T15:11:15.455Z,1.80
2022-09-14T15:13:42.944Z,1.60
2022-09-14T15:16:11.893Z,1.67
2022-09-14T15:18:39.463Z,2.03
2022-09-14T15:21:07.103Z,1.90
2022-09-14T15:23:34.819Z,1.80
2022-09-14T15:26:02.333Z,1.75
2022-09-14T15:28:30.541Z,1.70
2022-09-14T15:30:58.236Z,1.70
2022-09-14T15:33:27.084Z,1.75
2022-09-14T15:35:58.133Z,1.73
2022-09-14T15:38:25.855Z,1.52
2022-09-14T15:40:53.809Z,1.90
2022-09-14T15:43:21.360Z,1.80
2022-09-14T15:45:48.996Z,1.70
2022-09-14T15:48:17.398Z,1.75
2022-09-14T15:50:47.539Z,1.60
2022-09-14T15:53:16.099Z,1.90
2022-09-14T15:55:44.578Z,1.50
2022-09-14T15:58:12.556Z,1.45
2022-09-14T16:00:43.457Z,2.05
2022-09-14T16:03:11.178Z,1.90
2022-09-14T16:05:39.279Z,2.00
2022-09-14T16:08:08.208Z,1.45
2022-09-14T16:10:35.721Z,1.40
2022-09-14T16:13:03.240Z,1.50
2022-09-14T16:15:30.739Z,2.15
2022-09-14T16:17:58.555Z,1.75
2022-09-14T16:20:26.100Z,1.42
2022-09-14T16:22:53.781Z,1.40
2022-09-14T16:25:22.716Z,1.25
2022-09-14T16:27:50.418Z,1.50
2022-09-14T16:30:17.952Z,1.25
2022-09-14T16:32:45.608Z,1.33
2022-09-14T16:35:13.125Z,1.42
2022-09-14T16:37:40.809Z,1.38
2022-09-14T16:40:09.251Z,1.60
2022-09-14T16:42:38.435Z,1.50
2022-09-14T16:45:06.499Z,1.65
2022-09-14T16:47:34.004Z,1.58
2022-09-14T16:50:01.543Z,1.85
2022-09-14T16:52:29.682Z,1.55
2022-09-14T16:54:57.172Z,1.42
2022-09-14T16:57:26.657Z,1.70
2022-09-14T16:59:55.555Z,1.80
2022-09-14T17:02:23.182Z,1.80
2022-09-14T17:04:50.773Z,1.63
2022-09-14T17:07:18.263Z,1.73
2022-09-14T17:09:45.877Z,2.00
2022-09-14T17:12:13.408Z,1.60
2022-09-14T17:14:40.944Z,1.40
2022-09-14T17:17:09.828Z,1.58
2022-09-14T17:19:40.533Z,1.40
2022-09-14T17:22:11.384Z,1.90
2022-09-14T17:24:39.881Z,1.73
2022-09-14T17:27:07.377Z,2.17
2022-09-14T17:29:38.375Z,2.00
2022-09-14T17:32:06.067Z,1.88
2022-09-14T17:34:34.937Z,1.80
2022-09-14T17:37:02.526Z,1.80
2022-09-14T17:39:30.083Z,1.80
2022-09-14T17:41:57.583Z,2.00
2022-09-14T17:44:25.804Z,1.93
2022-09-14T17:46:53.484Z,2.03
2022-09-14T17:49:21.810Z,2.10
2022-09-14T17:51:50.858Z,2.13
2022-09-14T17:54:18.637Z,2.37
2022-09-14T17:56:46.283Z,2.00
2022-09-14T17:59:15.173Z,2.17
2022-09-14T18:01:42.728Z,2.20
2022-09-14T18:04:11.890Z,2.30
2022-09-14T18:06:40.307Z,2.50
2022-09-14T18:09:13.780Z,2.40
2022-09-14T18:11:41.351Z,2.00
2022-09-14T18:14:12.567Z,2.13
2022-09-14T18:16:40.326Z,2.63
2022-09-14T18:19:08.148Z,2.40
2022-09-14T18:21:35.663Z,2.00
2022-09-14T18:24:03.644Z,1.90
2022-09-14T18:26:32.503Z,1.93
2022-09-14T18:29:00.030Z,1.90
2022-09-14T18:31:28.097Z,2.00
2022-09-14T18:33:58.927Z,2.10
2022-09-14T18:36:29.020Z,2.20
2022-09-14T18:38:57.300Z,2.17
2022-09-14T18:41:24.811Z,2.13
2022-09-14T18:43:53.948Z,2.20
2022-09-14T18:46:25.942Z,1.90
2022-09-14T18:48:56.200Z,2.22
2022-09-14T18:51:23.705Z,2.00
2022-09-14T18:53:56.277Z,2.20
2022-09-14T18:56:23.967Z,2.00
2022-09-14T18:58:51.703Z,2.13
2022-09-14T19:01:20.805Z,2.50
2022-09-14T19:03:48.728Z,2.37
2022-09-14T19:06:16.828Z,2.53
2022-09-14T19:08:44.402Z,2.40
2022-09-14T19:11:13.360Z,3.03
2022-09-14T19:13:41.089Z,2.93
2022-09-14T19:16:09.067Z,2.60
2022-09-14T19:18:38.056Z,2.20
2022-09-14T19:21:07.200Z,2.50
2022-09-14T19:23:35.294Z,2.33
2022-09-14T19:26:03.587Z,3.07
2022-09-14T19:28:31.120Z,3.20
2022-09-14T19:30:58.703Z,2.87
2022-09-14T19:33:26.350Z,2.93
2022-09-14T19:35:55.230Z,3.70
2022-09-14T19:38:23.019Z,4.20
2022-09-14T19:40:53.399Z,4.07
2022-09-14T19:43:20.938Z,4.20
2022-09-14T19:45:48.808Z,2.57
2022-09-14T19:48:16.412Z,2.90
2022-09-14T19:50:44.198Z,2.37
2022-09-14T19:53:13.111Z,2.40
2022-09-14T19:55:40.598Z,2.80
2022-09-14T19:58:08.093Z,2.40
2022-09-14T20:00:35.860Z,2.07
2022-09-14T20:03:03.784Z,2.33
2022-09-14T20:05:31.407Z,2.00
2022-09-14T20:07:58.911Z,2.20
2022-09-14T20:10:27.803Z,2.00
2022-09-14T20:12:55.331Z,2.00
2022-09-14T20:15:22.866Z,1.97
2022-09-14T20:17:54.615Z,2.40
2022-09-14T20:20:22.156Z,2.30
2022-09-14T20:22:49.980Z,2.07
2022-09-14T20:25:17.571Z,1.90
2022-09-14T20:27:47.470Z,2.13
2022-09-14T20:30:15.045Z,2.27
2022-09-14T20:32:42.851Z,2.20
2022-09-14T20:35:11.636Z,2.30
2022-09-14T20:37:39.156Z,2.13
2022-09-14T20:40:07.294Z,2.27
2022-09-14T20:42:34.900Z,2.10
2022-09-14T20:45:03.796Z,2.20
2022-09-14T20:47:31.364Z,2.40
2022-09-14T20:49:58.907Z,2.10
2022-09-14T20:52:26.443Z,1.70
2022-09-14T20:54:54.003Z,1.93
2022-09-14T20:57:21.742Z,1.97
2022-09-14T20:59:49.268Z,1.97
2022-09-14T21:02:18.274Z,1.93
2022-09-14T21:04:45.856Z,1.87
2022-09-14T21:07:13.375Z,1.90
2022-09-14T21:09:40.896Z,2.13
2022-09-14T21:12:11.550Z,2.10
2022-09-14T21:14:39.039Z,2.20
2022-09-14T21:17:06.559Z,2.30
2022-09-14T21:19:36.419Z,2.20
2022-09-14T21:22:03.950Z,2.30
2022-09-14T21:24:31.694Z,2.27
2022-09-14T21:26:59.216Z,2.40
2022-09-14T21:29:26.715Z,2.43
2022-09-14T21:31:54.255Z,2.43
2022-09-14T21:34:21.959Z,2.30
2022-09-14T21:36:51.784Z,2.50
2022-09-14T21:39:21.367Z,2.13
2022-09-14T21:41:54.511Z,2.40
2022-09-14T21:44:28.478Z,2.03
2022-09-14T21:46:56.036Z,2.23
2022-09-14T21:49:23.715Z,2.40
2022-09-14T21:51:52.667Z,2.10
2022-09-14T21:54:20.288Z,2.07
2022-09-14T21:56:47.994Z,2.13
2022-09-14T21:59:22.550Z,2.10
2022-09-14T22:01:50.346Z,2.33
2022-09-14T22:04:18.410Z,2.20
2022-09-14T22:06:46.108Z,2.20
2022-09-14T22:09:15.651Z,2.40
2022-09-14T22:11:56.858Z,2.30
2022-09-14T22:14:31.324Z,2.60
2022-09-14T22:16:58.830Z,2.80
2022-09-14T22:19:27.365Z,2.73
2022-09-14T22:21:55.453Z,2.77
2022-09-14T22:24:36.425Z,2.83
2022-09-14T22:27:05.466Z,2.70
2022-09-14T22:29:33.040Z,2.63
2022-09-14T22:32:00.947Z,2.67
2022-09-14T22:34:28.741Z,2.50
2022-09-14T22:36:56.296Z,2.60
2022-09-14T22:39:25.329Z,2.87
2022-09-14T22:41:54.280Z,2.50
2022-09-14T22:44:21.771Z,2.60
2022-09-14T22:46:49.280Z,2.80
2022-09-14T22:49:17.391Z,2.40
2022-09-14T22:51:44.908Z,2.30
2022-09-14T22:54:12.419Z,2.20
2022-09-14T22:56:41.263Z,2.23
2022-09-14T22:59:09.450Z,1.93
2022-09-14T23:01:37.947Z,2.10
2022-09-14T23:04:06.395Z,1.87
2022-09-14T23:06:34.814Z,1.90
2022-09-14T23:09:02.355Z,1.60
2022-09-14T23:11:29.880Z,1.90
2022-09-14T23:13:58.825Z,1.87
2022-09-14T23:16:27.438Z,1.77
2022-09-14T23:18:55.743Z,2.20
2022-09-14T23:21:23.400Z,1.80
2022-09-14T23:23:51.858Z,1.90
2022-09-14T23:26:19.339Z,1.67
2022-09-14T23:28:51.370Z,2.03
2022-09-14T23:31:20.387Z,1.80
2022-09-14T23:33:50.042Z,1.60
2022-09-14T23:36:17.622Z,1.57
2022-09-14T23:38:45.127Z,1.30
2022-09-14T23:41:12.657Z,1.50
2022-09-14T23:43:40.172Z,1.80
2022-09-14T23:46:07.918Z,1.47
2022-09-14T23:48:36.871Z,1.80
2022-09-14T23:51:06.814Z,1.73
2022-09-14T23:53:34.935Z,1.70
2022-09-14T23:56:02.859Z,1.50
2022-09-14T23:58:30.413Z,1.60
